sensor_id;sensor_type;location;lat;lon;timestamp;P1;durP1;ratioP1;P2;durP2;ratioP2
58553;SDS011;48119;53.218;6.576;2022-11-20T00:02:09;19.88;;;12.25;;
58553;SDS011;48119;53.218;6.576;2022-11-20T00:04:35;19.15;;;12.40;;
58553;SDS011;48119;53.218;6.576;2022-11-20T00:07:00;22.38;;;14.63;;
58553;SDS011;48119;53.218;6.576;2022-11-20T00:09:26;22.98;;;15.23;;
58553;SDS011;48119;53.218;6.576;2022-11-20T00:11:52;18.75;;;12.60;;
58553;SDS011;48119;53.218;6.576;2022-11-20T00:14:18;23.92;;;14.15;;
58553;SDS011;48119;53.218;6.576;2022-11-20T00:16:44;22.77;;;13.88;;
58553;SDS011;48119;53.218;6.576;2022-11-20T00:19:10;17.10;;;10.43;;
58553;SDS011;48119;53.218;6.576;2022-11-20T00:21:36;16.00;;;10.73;;
58553;SDS011;48119;53.218;6.576;2022-11-20T00:24:01;17.55;;;10.40;;
58553;SDS011;48119;53.218;6.576;2022-11-20T00:26:28;13.40;;;9.02;;
58553;SDS011;48119;53.218;6.576;2022-11-20T00:28:59;13.32;;;8.80;;
58553;SDS011;48119;53.218;6.576;2022-11-20T00:31:26;15.23;;;10.32;;
58553;SDS011;48119;53.218;6.576;2022-11-20T00:33:53;15.90;;;9.45;;
58553;SDS011;48119;53.218;6.576;2022-11-20T00:36:20;24.40;;;12.93;;
58553;SDS011;48119;53.218;6.576;2022-11-20T00:38:53;17.65;;;10.98;;
58553;SDS011;48119;53.218;6.576;2022-11-20T00:41:22;18.35;;;11.55;;
58553;SDS011;48119;53.218;6.576;2022-11-20T00:43:49;17.80;;;12.10;;
58553;SDS011;48119;53.218;6.576;2022-11-20T00:46:20;15.13;;;9.88;;
58553;SDS011;48119;53.218;6.576;2022-11-20T00:48:48;13.77;;;9.20;;
58553;SDS011;48119;53.218;6.576;2022-11-20T00:51:15;16.17;;;10.27;;
58553;SDS011;48119;53.218;6.576;2022-11-20T00:53:46;18.25;;;11.18;;
58553;SDS011;48119;53.218;6.576;2022-11-20T00:56:13;16.58;;;9.73;;
58553;SDS011;48119;53.218;6.576;2022-11-20T00:58:42;13.02;;;9.00;;
58553;SDS011;48119;53.218;6.576;2022-11-20T01:01:42;15.18;;;9.07;;
58553;SDS011;48119;53.218;6.576;2022-11-20T01:04:02;13.63;;;9.02;;
58553;SDS011;48119;53.218;6.576;2022-11-20T01:06:32;11.90;;;8.50;;
58553;SDS011;48119;53.218;6.576;2022-11-20T01:09:00;14.13;;;8.88;;
58553;SDS011;48119;53.218;6.576;2022-11-20T01:11:33;20.17;;;11.82;;
58553;SDS011;48119;53.218;6.576;2022-11-20T01:14:02;18.98;;;12.15;;
58553;SDS011;48119;53.218;6.576;2022-11-20T01:16:32;14.90;;;9.82;;
58553;SDS011;48119;53.218;6.576;2022-11-20T01:19:01;14.30;;;9.38;;
58553;SDS011;48119;53.218;6.576;2022-11-20T01:21:32;15.75;;;9.60;;
58553;SDS011;48119;53.218;6.576;2022-11-20T01:24:00;17.08;;;11.02;;
58553;SDS011;48119;53.218;6.576;2022-11-20T01:26:29;17.48;;;10.68;;
58553;SDS011;48119;53.218;6.576;2022-11-20T01:28:56;17.95;;;11.13;;
58553;SDS011;48119;53.218;6.576;2022-11-20T01:31:25;18.00;;;11.93;;
58553;SDS011;48119;53.218;6.576;2022-11-20T01:33:56;21.30;;;11.70;;
58553;SDS011;48119;53.218;6.576;2022-11-20T01:36:24;20.15;;;11.98;;
58553;SDS011;48119;53.218;6.576;2022-11-20T01:38:51;19.95;;;12.18;;
58553;SDS011;48119;53.218;6.576;2022-11-20T01:41:18;23.15;;;11.30;;
58553;SDS011;48119;53.218;6.576;2022-11-20T01:44:03;22.58;;;12.05;;
58553;SDS011;48119;53.218;6.576;2022-11-20T01:46:29;16.63;;;10.65;;
58553;SDS011;48119;53.218;6.576;2022-11-20T01:48:58;15.13;;;10.45;;
58553;SDS011;48119;53.218;6.576;2022-11-20T01:51:45;14.57;;;9.55;;
58553;SDS011;48119;53.218;6.576;2022-11-20T01:54:19;13.65;;;8.95;;
58553;SDS011;48119;53.218;6.576;2022-11-20T01:56:51;16.80;;;9.70;;
58553;SDS011;48119;53.218;6.576;2022-11-20T01:59:21;14.85;;;10.60;;
58553;SDS011;48119;53.218;6.576;2022-11-20T02:01:49;15.02;;;9.18;;
58553;SDS011;48119;53.218;6.576;2022-11-20T02:04:15;15.07;;;10.15;;
58553;SDS011;48119;53.218;6.576;2022-11-20T02:06:48;13.20;;;9.10;;
58553;SDS011;48119;53.218;6.576;2022-11-20T02:09:19;14.93;;;9.00;;
58553;SDS011;48119;53.218;6.576;2022-11-20T02:11:45;13.98;;;9.95;;
58553;SDS011;48119;53.218;6.576;2022-11-20T02:14:11;17.45;;;12.05;;
58553;SDS011;48119;53.218;6.576;2022-11-20T02:16:37;15.02;;;10.57;;
58553;SDS011;48119;53.218;6.576;2022-11-20T02:19:13;18.27;;;10.95;;
58553;SDS011;48119;53.218;6.576;2022-11-20T02:22:41;17.00;;;10.37;;
58553;SDS011;48119;53.218;6.576;2022-11-20T02:24:47;24.23;;;13.50;;
58553;SDS011;48119;53.218;6.576;2022-11-20T02:27:15;21.42;;;12.82;;
58553;SDS011;48119;53.218;6.576;2022-11-20T02:29:46;17.73;;;12.00;;
58553;SDS011;48119;53.218;6.576;2022-11-20T02:32:36;21.70;;;13.38;;
58553;SDS011;48119;53.218;6.576;2022-11-20T02:37:54;17.60;;;12.48;;
58553;SDS011;48119;53.218;6.576;2022-11-20T02:40:23;21.30;;;11.82;;
58553;SDS011;48119;53.218;6.576;2022-11-20T02:42:55;17.90;;;11.80;;
58553;SDS011;48119;53.218;6.576;2022-11-20T02:45:22;16.58;;;11.43;;
58553;SDS011;48119;53.218;6.576;2022-11-20T02:47:51;14.13;;;10.02;;
58553;SDS011;48119;53.218;6.576;2022-11-20T02:50:17;16.35;;;10.50;;
58553;SDS011;48119;53.218;6.576;2022-11-20T02:52:43;17.73;;;11.45;;
58553;SDS011;48119;53.218;6.576;2022-11-20T02:55:09;19.02;;;10.73;;
58553;SDS011;48119;53.218;6.576;2022-11-20T02:57:35;16.83;;;11.00;;
58553;SDS011;48119;53.218;6.576;2022-11-20T03:00:01;20.05;;;9.35;;
58553;SDS011;48119;53.218;6.576;2022-11-20T03:02:31;10.23;;;7.70;;
58553;SDS011;48119;53.218;6.576;2022-11-20T03:04:58;12.30;;;9.25;;
58553;SDS011;48119;53.218;6.576;2022-11-20T03:07:23;15.00;;;9.10;;
58553;SDS011;48119;53.218;6.576;2022-11-20T03:09:49;11.77;;;8.68;;
58553;SDS011;48119;53.218;6.576;2022-11-20T03:12:15;14.13;;;8.80;;
58553;SDS011;48119;53.218;6.576;2022-11-20T03:14:41;12.02;;;8.40;;
58553;SDS011;48119;53.218;6.576;2022-11-20T03:17:07;11.60;;;8.45;;
58553;SDS011;48119;53.218;6.576;2022-11-20T03:19:33;14.70;;;8.80;;
58553;SDS011;48119;53.218;6.576;2022-11-20T03:21:59;9.88;;;7.80;;
58553;SDS011;48119;53.218;6.576;2022-11-20T03:24:25;10.82;;;7.75;;
58553;SDS011;48119;53.218;6.576;2022-11-20T03:26:51;14.88;;;8.05;;
58553;SDS011;48119;53.218;6.576;2022-11-20T03:29:17;12.05;;;8.52;;
58553;SDS011;48119;53.218;6.576;2022-11-20T03:31:42;11.93;;;8.73;;
58553;SDS011;48119;53.218;6.576;2022-11-20T03:34:09;12.55;;;8.57;;
58553;SDS011;48119;53.218;6.576;2022-11-20T03:36:39;12.43;;;8.50;;
58553;SDS011;48119;53.218;6.576;2022-11-20T03:39:06;10.82;;;7.97;;
58553;SDS011;48119;53.218;6.576;2022-11-20T03:41:35;12.98;;;7.68;;
58553;SDS011;48119;53.218;6.576;2022-11-20T03:44:03;15.40;;;9.13;;
58553;SDS011;48119;53.218;6.576;2022-11-20T03:46:30;11.88;;;8.48;;
58553;SDS011;48119;53.218;6.576;2022-11-20T03:48:57;11.10;;;7.65;;
58553;SDS011;48119;53.218;6.576;2022-11-20T03:51:24;11.57;;;8.10;;
58553;SDS011;48119;53.218;6.576;2022-11-20T03:53:55;9.77;;;7.22;;
58553;SDS011;48119;53.218;6.576;2022-11-20T03:56:22;11.13;;;8.00;;
58553;SDS011;48119;53.218;6.576;2022-11-20T03:58:50;11.25;;;7.95;;
58553;SDS011;48119;53.218;6.576;2022-11-20T04:01:17;12.13;;;8.88;;
58553;SDS011;48119;53.218;6.576;2022-11-20T04:03:47;15.75;;;8.50;;
58553;SDS011;48119;53.218;6.576;2022-11-20T04:06:15;11.13;;;8.32;;
58553;SDS011;48119;53.218;6.576;2022-11-20T04:08:49;11.93;;;7.55;;
58553;SDS011;48119;53.218;6.576;2022-11-20T04:11:16;11.65;;;7.63;;
58553;SDS011;48119;53.218;6.576;2022-11-20T04:13:46;11.43;;;8.35;;
58553;SDS011;48119;53.218;6.576;2022-11-20T04:16:13;10.90;;;7.93;;
58553;SDS011;48119;53.218;6.576;2022-11-20T04:18:39;11.43;;;7.80;;
58553;SDS011;48119;53.218;6.576;2022-11-20T04:21:05;11.50;;;7.75;;
58553;SDS011;48119;53.218;6.576;2022-11-20T04:23:32;11.10;;;7.78;;
58553;SDS011;48119;53.218;6.576;2022-11-20T04:26:05;11.20;;;7.68;;
58553;SDS011;48119;53.218;6.576;2022-11-20T04:28:33;11.68;;;7.72;;
58553;SDS011;48119;53.218;6.576;2022-11-20T04:31:02;11.65;;;7.60;;
58553;SDS011;48119;53.218;6.576;2022-11-20T04:33:36;13.55;;;8.73;;
58553;SDS011;48119;53.218;6.576;2022-11-20T04:36:12;12.95;;;8.40;;
58553;SDS011;48119;53.218;6.576;2022-11-20T04:38:45;11.68;;;8.13;;
58553;SDS011;48119;53.218;6.576;2022-11-20T04:41:16;12.95;;;8.10;;
58553;SDS011;48119;53.218;6.576;2022-11-20T04:43:53;10.95;;;7.35;;
58553;SDS011;48119;53.218;6.576;2022-11-20T04:46:27;11.38;;;7.80;;
58553;SDS011;48119;53.218;6.576;2022-11-20T04:48:54;12.20;;;8.50;;
58553;SDS011;48119;53.218;6.576;2022-11-20T04:51:19;13.65;;;8.48;;
58553;SDS011;48119;53.218;6.576;2022-11-20T04:53:45;9.90;;;7.95;;
58553;SDS011;48119;53.218;6.576;2022-11-20T04:56:11;10.13;;;6.80;;
58553;SDS011;48119;53.218;6.576;2022-11-20T04:58:38;12.35;;;7.85;;
58553;SDS011;48119;53.218;6.576;2022-11-20T05:03:36;11.40;;;7.10;;
58553;SDS011;48119;53.218;6.576;2022-11-20T05:06:03;10.93;;;7.47;;
58553;SDS011;48119;53.218;6.576;2022-11-20T05:08:30;10.43;;;7.75;;
58553;SDS011;48119;53.218;6.576;2022-11-20T05:11:03;12.10;;;7.70;;
58553;SDS011;48119;53.218;6.576;2022-11-20T05:13:40;10.55;;;7.38;;
58553;SDS011;48119;53.218;6.576;2022-11-20T05:16:07;10.93;;;7.72;;
58553;SDS011;48119;53.218;6.576;2022-11-20T05:18:35;9.38;;;7.40;;
58553;SDS011;48119;53.218;6.576;2022-11-20T05:21:01;8.70;;;6.30;;
58553;SDS011;48119;53.218;6.576;2022-11-20T05:23:28;9.35;;;7.13;;
58553;SDS011;48119;53.218;6.576;2022-11-20T05:25:55;10.38;;;6.65;;
58553;SDS011;48119;53.218;6.576;2022-11-20T05:28:22;9.90;;;7.10;;
58553;SDS011;48119;53.218;6.576;2022-11-20T05:30:48;10.52;;;6.40;;
58553;SDS011;48119;53.218;6.576;2022-11-20T05:33:14;10.18;;;6.03;;
58553;SDS011;48119;53.218;6.576;2022-11-20T05:35:40;9.65;;;6.40;;
58553;SDS011;48119;53.218;6.576;2022-11-20T05:38:06;10.35;;;7.18;;
58553;SDS011;48119;53.218;6.576;2022-11-20T05:40:32;8.68;;;6.60;;
58553;SDS011;48119;53.218;6.576;2022-11-20T05:42:58;10.35;;;6.60;;
58553;SDS011;48119;53.218;6.576;2022-11-20T05:45:24;10.15;;;6.78;;
58553;SDS011;48119;53.218;6.576;2022-11-20T05:47:50;9.02;;;6.25;;
58553;SDS011;48119;53.218;6.576;2022-11-20T05:50:15;8.23;;;5.90;;
58553;SDS011;48119;53.218;6.576;2022-11-20T05:52:41;10.13;;;6.85;;
58553;SDS011;48119;53.218;6.576;2022-11-20T05:55:08;10.55;;;7.32;;
58553;SDS011;48119;53.218;6.576;2022-11-20T05:57:34;8.88;;;6.20;;
58553;SDS011;48119;53.218;6.576;2022-11-20T05:59:59;8.40;;;5.85;;
58553;SDS011;48119;53.218;6.576;2022-11-20T06:02:25;8.43;;;5.75;;
58553;SDS011;48119;53.218;6.576;2022-11-20T06:04:54;10.02;;;6.18;;
58553;SDS011;48119;53.218;6.576;2022-11-20T06:07:20;10.20;;;6.93;;
58553;SDS011;48119;53.218;6.576;2022-11-20T06:09:45;9.60;;;6.55;;
58553;SDS011;48119;53.218;6.576;2022-11-20T06:12:11;8.70;;;6.50;;
58553;SDS011;48119;53.218;6.576;2022-11-20T06:14:36;9.55;;;7.10;;
58553;SDS011;48119;53.218;6.576;2022-11-20T06:17:02;8.60;;;6.40;;
58553;SDS011;48119;53.218;6.576;2022-11-20T06:19:28;9.40;;;6.43;;
58553;SDS011;48119;53.218;6.576;2022-11-20T06:21:54;9.82;;;6.60;;
58553;SDS011;48119;53.218;6.576;2022-11-20T06:24:19;7.05;;;5.85;;
58553;SDS011;48119;53.218;6.576;2022-11-20T06:26:45;10.88;;;6.82;;
58553;SDS011;48119;53.218;6.576;2022-11-20T06:29:11;8.20;;;6.00;;
58553;SDS011;48119;53.218;6.576;2022-11-20T06:31:39;9.07;;;6.35;;
58553;SDS011;48119;53.218;6.576;2022-11-20T06:34:07;9.40;;;6.65;;
58553;SDS011;48119;53.218;6.576;2022-11-20T06:36:33;9.07;;;6.47;;
58553;SDS011;48119;53.218;6.576;2022-11-20T06:38:59;8.57;;;6.47;;
58553;SDS011;48119;53.218;6.576;2022-11-20T06:41:25;11.00;;;5.93;;
58553;SDS011;48119;53.218;6.576;2022-11-20T06:43:52;8.45;;;6.10;;
58553;SDS011;48119;53.218;6.576;2022-11-20T06:46:19;8.65;;;6.30;;
58553;SDS011;48119;53.218;6.576;2022-11-20T06:48:45;7.47;;;6.05;;
58553;SDS011;48119;53.218;6.576;2022-11-20T06:51:12;7.93;;;5.82;;
58553;SDS011;48119;53.218;6.576;2022-11-20T06:53:38;9.90;;;6.28;;
58553;SDS011;48119;53.218;6.576;2022-11-20T06:56:04;8.80;;;6.15;;
58553;SDS011;48119;53.218;6.576;2022-11-20T06:58:31;9.65;;;6.97;;
58553;SDS011;48119;53.218;6.576;2022-11-20T07:00:59;9.05;;;5.85;;
58553;SDS011;48119;53.218;6.576;2022-11-20T07:03:25;8.05;;;6.20;;
58553;SDS011;48119;53.218;6.576;2022-11-20T07:05:54;8.18;;;6.00;;
58553;SDS011;48119;53.218;6.576;2022-11-20T07:08:21;11.02;;;6.35;;
58553;SDS011;48119;53.218;6.576;2022-11-20T07:10:47;8.82;;;5.72;;
58553;SDS011;48119;53.218;6.576;2022-11-20T07:13:12;8.43;;;6.47;;
58553;SDS011;48119;53.218;6.576;2022-11-20T07:15:38;9.18;;;6.30;;
58553;SDS011;48119;53.218;6.576;2022-11-20T07:18:04;8.90;;;6.47;;
58553;SDS011;48119;53.218;6.576;2022-11-20T07:20:30;8.35;;;5.82;;
58553;SDS011;48119;53.218;6.576;2022-11-20T07:22:55;7.85;;;6.40;;
58553;SDS011;48119;53.218;6.576;2022-11-20T07:25:22;9.98;;;6.60;;
58553;SDS011;48119;53.218;6.576;2022-11-20T07:27:51;11.38;;;7.28;;
58553;SDS011;48119;53.218;6.576;2022-11-20T07:30:17;10.20;;;7.03;;
58553;SDS011;48119;53.218;6.576;2022-11-20T07:32:47;9.50;;;7.30;;
58553;SDS011;48119;53.218;6.576;2022-11-20T07:35:15;10.35;;;6.30;;
58553;SDS011;48119;53.218;6.576;2022-11-20T07:37:41;9.05;;;6.38;;
58553;SDS011;48119;53.218;6.576;2022-11-20T07:40:07;9.93;;;6.75;;
58553;SDS011;48119;53.218;6.576;2022-11-20T07:42:33;14.15;;;7.13;;
58553;SDS011;48119;53.218;6.576;2022-11-20T07:44:59;10.23;;;6.47;;
58553;SDS011;48119;53.218;6.576;2022-11-20T07:47:24;9.27;;;6.53;;
58553;SDS011;48119;53.218;6.576;2022-11-20T07:49:50;9.15;;;6.95;;
58553;SDS011;48119;53.218;6.576;2022-11-20T07:52:16;9.18;;;6.43;;
58553;SDS011;48119;53.218;6.576;2022-11-20T07:54:41;11.55;;;7.35;;
58553;SDS011;48119;53.218;6.576;2022-11-20T07:57:07;9.70;;;6.10;;
58553;SDS011;48119;53.218;6.576;2022-11-20T07:59:33;8.07;;;5.88;;
58553;SDS011;48119;53.218;6.576;2022-11-20T08:01:58;9.75;;;6.28;;
58553;SDS011;48119;53.218;6.576;2022-11-20T08:04:24;9.23;;;6.68;;
58553;SDS011;48119;53.218;6.576;2022-11-20T08:06:51;9.55;;;6.25;;
58553;SDS011;48119;53.218;6.576;2022-11-20T08:09:17;8.32;;;6.55;;
58553;SDS011;48119;53.218;6.576;2022-11-20T08:11:43;9.90;;;6.53;;
58553;SDS011;48119;53.218;6.576;2022-11-20T08:14:27;9.63;;;6.45;;
58553;SDS011;48119;53.218;6.576;2022-11-20T08:16:53;8.40;;;6.38;;
58553;SDS011;48119;53.218;6.576;2022-11-20T08:19:19;9.07;;;6.13;;
58553;SDS011;48119;53.218;6.576;2022-11-20T08:21:44;11.27;;;7.82;;
58553;SDS011;48119;53.218;6.576;2022-11-20T08:24:10;8.40;;;6.18;;
58553;SDS011;48119;53.218;6.576;2022-11-20T08:26:37;9.50;;;6.18;;
58553;SDS011;48119;53.218;6.576;2022-11-20T08:29:04;10.70;;;7.10;;
58553;SDS011;48119;53.218;6.576;2022-11-20T08:31:30;11.00;;;7.35;;
58553;SDS011;48119;53.218;6.576;2022-11-20T08:33:56;11.10;;;6.65;;
58553;SDS011;48119;53.218;6.576;2022-11-20T08:36:24;10.35;;;7.15;;
58553;SDS011;48119;53.218;6.576;2022-11-20T08:38:50;9.50;;;7.18;;
58553;SDS011;48119;53.218;6.576;2022-11-20T08:41:20;10.57;;;6.85;;
58553;SDS011;48119;53.218;6.576;2022-11-20T08:43:49;10.48;;;6.57;;
58553;SDS011;48119;53.218;6.576;2022-11-20T08:46:17;12.38;;;7.53;;
58553;SDS011;48119;53.218;6.576;2022-11-20T08:48:44;9.55;;;6.68;;
58553;SDS011;48119;53.218;6.576;2022-11-20T08:51:10;8.98;;;6.18;;
58553;SDS011;48119;53.218;6.576;2022-11-20T08:53:37;10.35;;;6.38;;
58553;SDS011;48119;53.218;6.576;2022-11-20T08:56:04;13.02;;;7.57;;
58553;SDS011;48119;53.218;6.576;2022-11-20T08:58:30;9.30;;;6.85;;
58553;SDS011;48119;53.218;6.576;2022-11-20T09:00:56;10.07;;;7.30;;
58553;SDS011;48119;53.218;6.576;2022-11-20T09:03:22;13.80;;;7.28;;
58553;SDS011;48119;53.218;6.576;2022-11-20T09:05:48;9.88;;;6.57;;
58553;SDS011;48119;53.218;6.576;2022-11-20T09:08:14;12.00;;;6.80;;
58553;SDS011;48119;53.218;6.576;2022-11-20T09:10:39;12.43;;;7.05;;
58553;SDS011;48119;53.218;6.576;2022-11-20T09:13:05;11.25;;;6.55;;
58553;SDS011;48119;53.218;6.576;2022-11-20T09:15:31;10.60;;;7.07;;
58553;SDS011;48119;53.218;6.576;2022-11-20T09:18:01;9.07;;;6.93;;
58553;SDS011;48119;53.218;6.576;2022-11-20T09:20:29;10.13;;;7.38;;
58553;SDS011;48119;53.218;6.576;2022-11-20T09:22:56;10.57;;;8.10;;
58553;SDS011;48119;53.218;6.576;2022-11-20T09:25:22;9.88;;;6.50;;
58553;SDS011;48119;53.218;6.576;2022-11-20T09:27:54;13.00;;;7.72;;
58553;SDS011;48119;53.218;6.576;2022-11-20T09:30:23;8.90;;;7.10;;
58553;SDS011;48119;53.218;6.576;2022-11-20T09:32:49;10.02;;;7.03;;
58553;SDS011;48119;53.218;6.576;2022-11-20T09:35:15;11.40;;;6.88;;
58553;SDS011;48119;53.218;6.576;2022-11-20T09:37:42;10.77;;;8.15;;
58553;SDS011;48119;53.218;6.576;2022-11-20T09:42:56;11.48;;;7.03;;
58553;SDS011;48119;53.218;6.576;2022-11-20T09:48:29;10.68;;;7.10;;
58553;SDS011;48119;53.218;6.576;2022-11-20T09:53:42;11.27;;;8.05;;
58553;SDS011;48119;53.218;6.576;2022-11-20T09:56:26;11.52;;;7.78;;
58553;SDS011;48119;53.218;6.576;2022-11-20T09:58:54;11.63;;;7.63;;
58553;SDS011;48119;53.218;6.576;2022-11-20T10:01:26;10.85;;;6.93;;
58553;SDS011;48119;53.218;6.576;2022-11-20T10:06:32;10.07;;;7.85;;
58553;SDS011;48119;53.218;6.576;2022-11-20T10:12:12;10.15;;;6.95;;
58553;SDS011;48119;53.218;6.576;2022-11-20T10:31:03;9.73;;;6.30;;
58553;SDS011;48119;53.218;6.576;2022-11-20T10:33:35;12.60;;;7.32;;
58553;SDS011;48119;53.218;6.576;2022-11-20T10:38:39;8.15;;;6.45;;
58553;SDS011;48119;53.218;6.576;2022-11-20T10:41:11;9.10;;;5.93;;
58553;SDS011;48119;53.218;6.576;2022-11-20T10:44:01;10.48;;;5.95;;
58553;SDS011;48119;53.218;6.576;2022-11-20T10:46:40;8.80;;;6.22;;
58553;SDS011;48119;53.218;6.576;2022-11-20T10:49:14;9.95;;;6.85;;
58553;SDS011;48119;53.218;6.576;2022-11-20T10:51:56;9.43;;;6.13;;
58553;SDS011;48119;53.218;6.576;2022-11-20T10:57:19;9.35;;;6.25;;
58553;SDS011;48119;53.218;6.576;2022-11-20T11:02:34;10.25;;;6.03;;
58553;SDS011;48119;53.218;6.576;2022-11-20T11:05:10;9.05;;;6.07;;
58553;SDS011;48119;53.218;6.576;2022-11-20T11:07:57;11.40;;;6.88;;
58553;SDS011;48119;53.218;6.576;2022-11-20T11:10:38;10.85;;;6.22;;
58553;SDS011;48119;53.218;6.576;2022-11-20T11:13:22;8.70;;;5.67;;
58553;SDS011;48119;53.218;6.576;2022-11-20T11:15:50;8.25;;;5.72;;
58553;SDS011;48119;53.218;6.576;2022-11-20T11:18:26;7.20;;;5.35;;
58553;SDS011;48119;53.218;6.576;2022-11-20T11:20:57;10.05;;;5.75;;
58553;SDS011;48119;53.218;6.576;2022-11-20T11:23:36;8.93;;;5.85;;
58553;SDS011;48119;53.218;6.576;2022-11-20T11:26:19;9.23;;;5.65;;
58553;SDS011;48119;53.218;6.576;2022-11-20T11:28:59;9.68;;;7.10;;
58553;SDS011;48119;53.218;6.576;2022-11-20T11:31:29;12.50;;;6.88;;
58553;SDS011;48119;53.218;6.576;2022-11-20T11:34:12;9.88;;;5.95;;
58553;SDS011;48119;53.218;6.576;2022-11-20T11:36:40;11.93;;;7.57;;
58553;SDS011;48119;53.218;6.576;2022-11-20T11:39:08;10.00;;;6.40;;
58553;SDS011;48119;53.218;6.576;2022-11-20T11:41:39;8.57;;;6.10;;
58553;SDS011;48119;53.218;6.576;2022-11-20T11:44:16;9.23;;;6.45;;
58553;SDS011;48119;53.218;6.576;2022-11-20T11:47:01;9.77;;;6.40;;
58553;SDS011;48119;53.218;6.576;2022-11-20T11:49:28;8.52;;;5.78;;
58553;SDS011;48119;53.218;6.576;2022-11-20T12:11:04;7.97;;;5.88;;
58553;SDS011;48119;53.218;6.576;2022-11-20T12:13:39;8.40;;;5.88;;
58553;SDS011;48119;53.218;6.576;2022-11-20T12:16:07;8.15;;;5.78;;
58553;SDS011;48119;53.218;6.576;2022-11-20T12:18:40;7.47;;;5.32;;
58553;SDS011;48119;53.218;6.576;2022-11-20T12:39:49;7.00;;;3.92;;
58553;SDS011;48119;53.218;6.576;2022-11-20T12:42:21;8.00;;;4.15;;
58553;SDS011;48119;53.218;6.576;2022-11-20T12:51:18;5.88;;;4.18;;
58553;SDS011;48119;53.218;6.576;2022-11-20T12:57:45;7.63;;;4.40;;
58553;SDS011;48119;53.218;6.576;2022-11-20T13:08:29;6.22;;;4.07;;
58553;SDS011;48119;53.218;6.576;2022-11-20T13:19:02;5.60;;;3.85;;
58553;SDS011;48119;53.218;6.576;2022-11-20T13:21:37;8.75;;;4.93;;
58553;SDS011;48119;53.218;6.576;2022-11-20T13:24:29;6.72;;;4.68;;
58553;SDS011;48119;53.218;6.576;2022-11-20T13:27:04;4.78;;;3.90;;
58553;SDS011;48119;53.218;6.576;2022-11-20T13:29:46;6.30;;;4.30;;
58553;SDS011;48119;53.218;6.576;2022-11-20T13:32:25;8.00;;;4.75;;
58553;SDS011;48119;53.218;6.576;2022-11-20T13:34:58;5.35;;;4.07;;
58553;SDS011;48119;53.218;6.576;2022-11-20T13:37:36;5.35;;;3.65;;
58553;SDS011;48119;53.218;6.576;2022-11-20T13:45:27;6.60;;;4.37;;
58553;SDS011;48119;53.218;6.576;2022-11-20T13:47:55;7.07;;;4.85;;
58553;SDS011;48119;53.218;6.576;2022-11-20T13:50:22;6.45;;;4.80;;
58553;SDS011;48119;53.218;6.576;2022-11-20T13:59:17;7.88;;;4.63;;
58553;SDS011;48119;53.218;6.576;2022-11-20T14:01:53;7.18;;;4.47;;
58553;SDS011;48119;53.218;6.576;2022-11-20T14:04:21;7.43;;;5.03;;
58553;SDS011;48119;53.218;6.576;2022-11-20T14:07:01;9.43;;;5.32;;
58553;SDS011;48119;53.218;6.576;2022-11-20T14:09:31;7.90;;;5.00;;
58553;SDS011;48119;53.218;6.576;2022-11-20T14:11:58;6.80;;;4.75;;
58553;SDS011;48119;53.218;6.576;2022-11-20T14:14:25;7.40;;;4.70;;
58553;SDS011;48119;53.218;6.576;2022-11-20T14:17:03;8.48;;;5.25;;
58553;SDS011;48119;53.218;6.576;2022-11-20T14:19:51;7.15;;;4.47;;
58553;SDS011;48119;53.218;6.576;2022-11-20T14:24:45;7.60;;;5.03;;
58553;SDS011;48119;53.218;6.576;2022-11-20T14:27:13;7.70;;;4.97;;
58553;SDS011;48119;53.218;6.576;2022-11-20T14:29:41;7.72;;;5.65;;
58553;SDS011;48119;53.218;6.576;2022-11-20T14:32:09;7.90;;;5.50;;
58553;SDS011;48119;53.218;6.576;2022-11-20T14:34:37;8.52;;;5.28;;
58553;SDS011;48119;53.218;6.576;2022-11-20T14:37:06;7.47;;;5.22;;
58553;SDS011;48119;53.218;6.576;2022-11-20T14:39:39;7.20;;;5.32;;
58553;SDS011;48119;53.218;6.576;2022-11-20T14:42:15;8.10;;;5.28;;
58553;SDS011;48119;53.218;6.576;2022-11-20T14:44:45;8.25;;;5.25;;
58553;SDS011;48119;53.218;6.576;2022-11-20T14:47:14;8.05;;;5.30;;
58553;SDS011;48119;53.218;6.576;2022-11-20T14:49:44;8.05;;;5.07;;
58553;SDS011;48119;53.218;6.576;2022-11-20T14:52:15;9.90;;;5.38;;
58553;SDS011;48119;53.218;6.576;2022-11-20T14:54:48;8.93;;;4.70;;
58553;SDS011;48119;53.218;6.576;2022-11-20T14:57:29;7.65;;;4.85;;
58553;SDS011;48119;53.218;6.576;2022-11-20T15:02:32;11.40;;;6.25;;
58553;SDS011;48119;53.218;6.576;2022-11-20T15:04:58;9.55;;;6.22;;
58553;SDS011;48119;53.218;6.576;2022-11-20T15:07:35;7.50;;;4.70;;
58553;SDS011;48119;53.218;6.576;2022-11-20T15:12:29;7.43;;;5.40;;
58553;SDS011;48119;53.218;6.576;2022-11-20T15:14:57;9.77;;;5.63;;
58553;SDS011;48119;53.218;6.576;2022-11-20T15:17:28;5.93;;;4.70;;
58553;SDS011;48119;53.218;6.576;2022-11-20T15:19:55;9.25;;;5.88;;
58553;SDS011;48119;53.218;6.576;2022-11-20T15:22:21;8.82;;;5.72;;
58553;SDS011;48119;53.218;6.576;2022-11-20T15:24:47;8.00;;;5.65;;
58553;SDS011;48119;53.218;6.576;2022-11-20T15:27:13;9.57;;;6.03;;
58553;SDS011;48119;53.218;6.576;2022-11-20T15:29:38;8.98;;;5.63;;
58553;SDS011;48119;53.218;6.576;2022-11-20T15:32:05;9.32;;;6.05;;
58553;SDS011;48119;53.218;6.576;2022-11-20T15:34:31;7.57;;;5.20;;
58553;SDS011;48119;53.218;6.576;2022-11-20T15:36:56;11.20;;;6.72;;
58553;SDS011;48119;53.218;6.576;2022-11-20T15:39:22;11.50;;;6.95;;
58553;SDS011;48119;53.218;6.576;2022-11-20T15:41:51;13.15;;;6.65;;
58553;SDS011;48119;53.218;6.576;2022-11-20T15:44:16;8.45;;;6.45;;
58553;SDS011;48119;53.218;6.576;2022-11-20T15:46:42;11.25;;;6.63;;
58553;SDS011;48119;53.218;6.576;2022-11-20T15:49:14;10.18;;;6.53;;
58553;SDS011;48119;53.218;6.576;2022-11-20T15:51:41;9.93;;;6.53;;
58553;SDS011;48119;53.218;6.576;2022-11-20T15:54:10;9.13;;;6.45;;
58553;SDS011;48119;53.218;6.576;2022-11-20T15:56:36;10.63;;;7.20;;
58553;SDS011;48119;53.218;6.576;2022-11-20T15:59:02;10.48;;;6.65;;
58553;SDS011;48119;53.218;6.576;2022-11-20T16:01:28;11.55;;;6.53;;
58553;SDS011;48119;53.218;6.576;2022-11-20T16:03:54;13.05;;;7.82;;
58553;SDS011;48119;53.218;6.576;2022-11-20T16:06:19;12.23;;;7.88;;
58553;SDS011;48119;53.218;6.576;2022-11-20T16:08:45;9.95;;;7.15;;
58553;SDS011;48119;53.218;6.576;2022-11-20T16:11:12;14.32;;;8.05;;
58553;SDS011;48119;53.218;6.576;2022-11-20T16:13:39;11.60;;;7.03;;
58553;SDS011;48119;53.218;6.576;2022-11-20T16:16:31;14.38;;;8.48;;
58553;SDS011;48119;53.218;6.576;2022-11-20T16:18:58;13.48;;;7.90;;
58553;SDS011;48119;53.218;6.576;2022-11-20T16:21:27;15.35;;;8.75;;
58553;SDS011;48119;53.218;6.576;2022-11-20T16:23:59;15.52;;;9.15;;
58553;SDS011;48119;53.218;6.576;2022-11-20T16:26:27;12.05;;;8.38;;
58553;SDS011;48119;53.218;6.576;2022-11-20T16:28:53;15.63;;;8.35;;
58553;SDS011;48119;53.218;6.576;2022-11-20T16:31:19;12.73;;;7.88;;
58553;SDS011;48119;53.218;6.576;2022-11-20T16:33:52;21.45;;;10.27;;
58553;SDS011;48119;53.218;6.576;2022-11-20T16:36:20;14.00;;;8.38;;
58553;SDS011;48119;53.218;6.576;2022-11-20T16:38:51;16.98;;;8.25;;
58553;SDS011;48119;53.218;6.576;2022-11-20T16:41:22;16.08;;;9.23;;
58553;SDS011;48119;53.218;6.576;2022-11-20T16:43:49;15.40;;;9.35;;
58553;SDS011;48119;53.218;6.576;2022-11-20T16:46:17;15.20;;;8.73;;
58553;SDS011;48119;53.218;6.576;2022-11-20T16:48:44;20.73;;;10.88;;
58553;SDS011;48119;53.218;6.576;2022-11-20T16:51:16;15.23;;;9.63;;
58553;SDS011;48119;53.218;6.576;2022-11-20T16:53:42;18.60;;;9.20;;
58553;SDS011;48119;53.218;6.576;2022-11-20T16:56:15;15.15;;;8.70;;
58553;SDS011;48119;53.218;6.576;2022-11-20T16:58:46;15.18;;;9.23;;